createdAt,value
2022-08-28T00:02:09.225Z,69.26
2022-08-28T00:04:37.264Z,68.85
2022-08-28T00:07:05.923Z,68.47
2022-08-28T00:09:33.779Z,68.65
2022-08-28T00:12:01.733Z,68.68
2022-08-28T00:14:29.896Z,68.44
2022-08-28T00:16:57.687Z,68.50
2022-08-28T00:19:27.292Z,68.29
2022-08-28T00:21:55.235Z,67.77
2022-08-28T00:24:23.008Z,67.32
2022-08-28T00:27:08.167Z,67.32
2022-08-28T00:29:36.107Z,67.13
2022-08-28T00:32:04.759Z,66.97
2022-08-28T00:34:33.926Z,67.17
2022-08-28T00:37:02.007Z,67.24
2022-08-28T00:39:29.868Z,66.85
2022-08-28T00:41:58.849Z,66.58
2022-08-28T00:44:28.926Z,66.79
2022-08-28T00:46:59.148Z,66.51
2022-08-28T00:49:30.661Z,66.41
2022-08-28T00:52:08.094Z,66.83
2022-08-28T00:54:39.347Z,66.47
2022-08-28T00:57:09.846Z,67.19
2022-08-28T00:59:39.396Z,66.60
2022-08-28T01:02:08.381Z,66.35
2022-08-28T01:04:37.280Z,66.50
2022-08-28T01:07:09.726Z,66.13
2022-08-28T01:09:41.471Z,66.37
2022-08-28T01:12:13.491Z,66.64
2022-08-28T01:14:45.723Z,66.67
2022-08-28T01:17:15.872Z,66.61
2022-08-28T01:19:55.449Z,66.09
2022-08-28T01:22:31.074Z,66.24
2022-08-28T01:25:03.283Z,66.29
2022-08-28T01:27:31.260Z,66.13
2022-08-28T01:29:59.160Z,65.84
2022-08-28T01:32:34.204Z,65.85
2022-08-28T01:35:02.451Z,66.49
2022-08-28T01:37:31.908Z,65.65
2022-08-28T01:40:02.205Z,65.94
2022-08-28T01:42:30.125Z,65.84
2022-08-28T01:44:58.141Z,65.88
2022-08-28T01:47:25.897Z,66.22
2022-08-28T01:49:53.651Z,66.63
2022-08-28T01:52:24.101Z,66.76
2022-08-28T01:54:54.405Z,67.19
2022-08-28T01:57:25.555Z,66.64
2022-08-28T01:59:54.434Z,66.65
2022-08-28T02:02:22.707Z,66.32
2022-08-28T02:04:50.640Z,66.38
2022-08-28T02:07:18.756Z,66.63
2022-08-28T02:09:46.769Z,66.45
2022-08-28T02:12:14.602Z,66.79
2022-08-28T02:14:43.783Z,67.75
2022-08-28T02:17:12.103Z,67.41
2022-08-28T02:19:39.904Z,67.17
2022-08-28T02:22:09.308Z,66.90
2022-08-28T02:24:37.374Z,67.08
2022-08-28T02:27:05.888Z,66.55
2022-08-28T02:29:34.106Z,66.58
2022-08-28T02:32:05.840Z,66.19
2022-08-28T02:34:34.049Z,66.65
2022-08-28T02:37:01.970Z,66.81
2022-08-28T02:39:30.070Z,66.79
2022-08-28T02:41:57.935Z,66.77
2022-08-28T02:44:25.872Z,67.02
2022-08-28T02:46:53.759Z,67.05
2022-08-28T02:49:24.020Z,66.88
2022-08-28T02:51:51.931Z,66.76
2022-08-28T02:54:21.157Z,66.66
2022-08-28T02:56:49.027Z,65.80
2022-08-28T02:59:16.831Z,66.32
2022-08-28T03:01:44.780Z,67.15
2022-08-28T03:04:12.663Z,67.24
2022-08-28T03:06:42.064Z,67.56
2022-08-28T03:09:10.425Z,67.03
2022-08-28T03:11:38.319Z,67.21
2022-08-28T03:14:06.139Z,67.47
2022-08-28T03:16:34.714Z,67.86
2022-08-28T03:19:03.376Z,67.93
2022-08-28T03:21:31.211Z,67.35
2022-08-28T03:24:00.433Z,67.19
2022-08-28T03:26:28.748Z,67.10
2022-08-28T03:28:57.602Z,67.43
2022-08-28T03:31:29.923Z,66.51
2022-08-28T03:33:58.283Z,66.85
2022-08-28T03:36:28.763Z,67.39
2022-08-28T03:39:00.097Z,66.99
2022-08-28T03:41:30.953Z,67.28
2022-08-28T03:44:00.424Z,67.17
2022-08-28T03:46:32.709Z,66.87
2022-08-28T03:49:01.040Z,66.97
2022-08-28T03:51:31.461Z,66.91
2022-08-28T03:54:00.826Z,67.39
2022-08-28T03:56:31.275Z,67.33
2022-08-28T03:59:01.682Z,67.16
2022-08-28T04:01:30.235Z,67.63
2022-08-28T04:03:58.353Z,66.86
2022-08-28T04:06:27.051Z,67.27
2022-08-28T04:08:55.342Z,67.60
2022-08-28T04:11:27.987Z,67.44
2022-08-28T04:13:57.815Z,67.07
2022-08-28T04:16:25.604Z,67.57
2022-08-28T04:18:53.327Z,67.83
2022-08-28T04:21:23.503Z,67.89
2022-08-28T04:23:52.076Z,67.86
2022-08-28T04:26:21.910Z,67.65
2022-08-28T04:28:50.970Z,67.40
2022-08-28T04:31:31.772Z,68.03
2022-08-28T04:34:01.184Z,67.67
2022-08-28T04:36:29.821Z,67.56
2022-08-28T04:38:58.547Z,68.20
2022-08-28T04:41:26.687Z,68.07
2022-08-28T04:43:56.811Z,67.73
2022-08-28T04:46:26.499Z,67.71
2022-08-28T04:48:59.517Z,67.61
2022-08-28T04:51:27.638Z,67.85
2022-08-28T04:53:55.427Z,67.73
2022-08-28T04:56:23.469Z,67.84
2022-08-28T04:58:51.450Z,67.71
2022-08-28T05:01:21.408Z,67.93
2022-08-28T05:03:54.605Z,67.97
2022-08-28T05:06:22.863Z,67.84
2022-08-28T05:08:50.829Z,68.29
2022-08-28T05:11:32.782Z,67.84
2022-08-28T05:14:04.346Z,68.25
2022-08-28T05:16:32.834Z,68.74
2022-08-28T05:19:02.500Z,68.47
2022-08-28T05:21:30.329Z,68.56
2022-08-28T05:23:59.249Z,68.77
2022-08-28T05:26:28.415Z,68.50
2022-08-28T05:28:59.519Z,69.27
2022-08-28T05:31:29.736Z,68.87
2022-08-28T05:34:00.876Z,69.49
2022-08-28T05:36:33.347Z,69.87
2022-08-28T05:39:07.607Z,69.99
2022-08-28T05:41:35.923Z,70.06
2022-08-28T05:44:06.379Z,69.95
2022-08-28T05:46:44.834Z,70.03
2022-08-28T05:49:13.471Z,69.91
2022-08-28T05:51:43.622Z,69.85
2022-08-28T05:54:11.774Z,70.17
2022-08-28T05:56:42.041Z,70.61
2022-08-28T05:59:11.253Z,70.72
2022-08-28T06:01:41.532Z,70.32
2022-08-28T06:04:13.115Z,70.20
2022-08-28T06:06:43.053Z,70.47
2022-08-28T06:09:13.930Z,69.78
2022-08-28T06:11:46.111Z,69.94
2022-08-28T06:14:16.602Z,69.83
2022-08-28T06:16:48.141Z,69.57
2022-08-28T06:19:16.936Z,69.51
2022-08-28T06:21:48.184Z,69.58
2022-08-28T06:24:15.971Z,69.67
2022-08-28T06:26:44.364Z,69.24
2022-08-28T06:29:15.731Z,69.90
2022-08-28T06:31:43.714Z,69.11
2022-08-28T06:34:11.641Z,69.08
2022-08-28T06:36:42.078Z,68.85
2022-08-28T06:39:14.708Z,68.14
2022-08-28T06:41:43.786Z,68.41
2022-08-28T06:44:13.491Z,67.66
2022-08-28T06:46:42.007Z,67.94
2022-08-28T06:49:10.288Z,68.72
2022-08-28T06:51:38.385Z,67.82
2022-08-28T06:54:07.350Z,68.29
2022-08-28T06:56:36.861Z,68.54
2022-08-28T06:59:05.218Z,68.32
2022-08-28T07:01:35.319Z,69.07
2022-08-28T07:04:06.437Z,68.08
2022-08-28T07:06:36.011Z,67.89
2022-08-28T07:09:06.201Z,68.54
2022-08-28T07:11:36.710Z,67.79
2022-08-28T07:14:06.059Z,67.47
2022-08-28T07:16:38.116Z,67.74
2022-08-28T07:19:07.270Z,67.71
2022-08-28T07:21:38.689Z,69.01
2022-08-28T07:24:08.436Z,68.58
2022-08-28T07:26:37.991Z,66.97
2022-08-28T07:29:10.812Z,67.75
2022-08-28T07:31:45.667Z,66.83
2022-08-28T07:34:15.079Z,68.85
2022-08-28T07:36:44.590Z,68.23
2022-08-28T07:39:14.128Z,68.83
2022-08-28T07:41:43.923Z,67.42
2022-08-28T07:44:32.347Z,67.51
2022-08-28T07:47:02.309Z,66.54
2022-08-28T07:49:30.098Z,67.50
2022-08-28T07:51:58.358Z,66.14
2022-08-28T07:54:26.166Z,66.96
2022-08-28T07:56:55.856Z,66.96
2022-08-28T07:59:23.870Z,66.82
2022-08-28T08:01:53.042Z,67.07
2022-08-28T08:04:22.517Z,66.21
2022-08-28T08:06:57.010Z,65.98
2022-08-28T08:09:27.324Z,65.21
2022-08-28T08:11:58.291Z,65.52
2022-08-28T08:14:28.708Z,65.81
2022-08-28T08:16:56.511Z,64.94
2022-08-28T08:19:24.341Z,64.62
2022-08-28T08:21:55.087Z,65.70
2022-08-28T08:24:26.074Z,63.79
2022-08-28T08:26:59.927Z,65.02
2022-08-28T08:29:32.292Z,64.95
2022-08-28T08:32:05.249Z,63.03
2022-08-28T08:34:34.712Z,63.81
2022-08-28T08:37:02.612Z,63.61
2022-08-28T08:39:31.665Z,63.44
2022-08-28T08:42:01.700Z,65.03
2022-08-28T08:44:34.437Z,64.10
2022-08-28T08:47:14.598Z,62.86
2022-08-28T08:49:50.724Z,63.80
2022-08-28T08:52:36.343Z,64.72
2022-08-28T08:55:24.596Z,64.25
2022-08-28T08:58:02.055Z,63.84
2022-08-28T09:00:34.340Z,63.83
2022-08-28T09:03:07.560Z,61.71
2022-08-28T09:05:45.127Z,62.38
2022-08-28T09:08:23.050Z,62.38
2022-08-28T09:11:00.044Z,62.97
2022-08-28T09:13:39.715Z,60.63
2022-08-28T09:16:17.624Z,61.08
2022-08-28T09:18:46.036Z,61.21
2022-08-28T09:21:29.028Z,61.25
2022-08-28T09:24:05.736Z,61.78
2022-08-28T09:26:35.628Z,61.73
2022-08-28T09:29:06.399Z,61.35
2022-08-28T09:31:38.174Z,60.39
2022-08-28T09:34:25.481Z,58.20
2022-08-28T09:36:54.952Z,59.67
2022-08-28T09:39:24.757Z,59.35
2022-08-28T09:42:33.086Z,59.92
2022-08-28T09:45:09.354Z,58.64
2022-08-28T09:47:49.058Z,58.55
2022-08-28T09:50:31.225Z,57.23
2022-08-28T09:53:15.227Z,56.95
2022-08-28T09:55:51.879Z,58.51
2022-08-28T09:58:22.170Z,58.38
2022-08-28T10:00:53.826Z,57.07
2022-08-28T10:03:28.261Z,57.22
2022-08-28T10:06:05.226Z,57.80
2022-08-28T10:08:55.313Z,55.63
2022-08-28T10:11:30.779Z,55.76
2022-08-28T10:14:07.966Z,56.21
2022-08-28T10:16:47.091Z,55.84
2022-08-28T10:19:29.405Z,53.98
2022-08-28T10:22:05.192Z,54.40
2022-08-28T10:24:48.583Z,55.31
2022-08-28T10:27:31.592Z,51.34
2022-08-28T10:30:12.506Z,51.22
2022-08-28T10:33:12.568Z,49.11
2022-08-28T10:35:52.076Z,48.68
2022-08-28T10:38:29.750Z,48.56
2022-08-28T10:41:03.453Z,46.78
2022-08-28T10:43:34.641Z,47.26
2022-08-28T10:46:06.581Z,46.07
2022-08-28T10:48:41.090Z,44.33
2022-08-28T10:51:15.369Z,43.32
2022-08-28T10:53:47.037Z,43.71
2022-08-28T10:56:18.896Z,42.43
2022-08-28T10:58:50.863Z,42.67
2022-08-28T11:01:27.130Z,42.50
2022-08-28T11:03:57.019Z,42.79
2022-08-28T11:06:33.362Z,42.05
2022-08-28T11:09:24.687Z,41.97
2022-08-28T11:12:01.541Z,41.33
2022-08-28T11:14:33.822Z,40.13
2022-08-28T11:17:06.579Z,40.59
2022-08-28T11:20:00.731Z,41.63
2022-08-28T11:22:35.615Z,41.31
2022-08-28T11:25:12.152Z,42.12
2022-08-28T11:27:41.257Z,42.26
2022-08-28T11:30:33.021Z,42.40
2022-08-28T11:33:09.590Z,43.77
2022-08-28T11:35:45.047Z,44.41
2022-08-28T11:38:52.444Z,44.37
2022-08-28T11:41:22.732Z,44.94
2022-08-28T11:43:52.387Z,44.71
2022-08-28T11:46:31.281Z,45.28
2022-08-28T11:49:01.077Z,45.13
2022-08-28T11:51:54.059Z,45.65
2022-08-28T11:54:41.182Z,45.83
2022-08-28T11:57:14.772Z,44.88
2022-08-28T12:00:02.951Z,44.16
2022-08-28T12:03:12.893Z,44.73
2022-08-28T12:05:49.892Z,45.85
2022-08-28T12:09:09.539Z,45.21
2022-08-28T12:11:58.292Z,44.87
2022-08-28T12:15:08.514Z,44.39
2022-08-28T12:18:01.097Z,43.89
2022-08-28T12:21:00.872Z,43.52
2022-08-28T12:23:43.245Z,45.53
2022-08-28T12:26:22.284Z,44.19
2022-08-28T12:28:55.010Z,43.95
2022-08-28T12:32:04.706Z,42.05
2022-08-28T12:34:44.403Z,42.38
2022-08-28T12:37:47.561Z,42.67
2022-08-28T12:40:24.048Z,40.51
2022-08-28T12:42:55.879Z,39.23
2022-08-28T12:45:32.334Z,39.03
2022-08-28T12:48:04.207Z,37.98
2022-08-28T12:50:35.830Z,37.48
2022-08-28T12:53:06.616Z,36.45
2022-08-28T12:55:35.332Z,36.36
2022-08-28T12:58:03.020Z,36.41
2022-08-28T13:00:35.584Z,36.01
2022-08-28T13:03:08.163Z,36.27
2022-08-28T13:05:39.687Z,35.35
2022-08-28T13:08:10.743Z,34.84
2022-08-28T13:10:41.818Z,35.36
2022-08-28T13:13:19.437Z,35.00
2022-08-28T13:15:53.414Z,35.31
2022-08-28T13:18:47.346Z,35.00
2022-08-28T13:21:34.316Z,35.01
2022-08-28T13:24:40.327Z,36.67
2022-08-28T13:27:18.906Z,35.52
2022-08-28T13:29:59.689Z,34.50
2022-08-28T13:32:31.421Z,33.74
2022-08-28T13:35:16.613Z,34.03
2022-08-28T13:37:48.008Z,34.79
2022-08-28T13:40:45.916Z,34.15
2022-08-28T13:43:11.299Z,34.65
2022-08-28T13:45:43.657Z,34.25
2022-08-28T13:48:14.061Z,35.38
2022-08-28T13:50:46.493Z,35.86
2022-08-28T13:53:15.390Z,35.45
2022-08-28T13:55:43.357Z,35.26
2022-08-28T13:58:11.448Z,36.43
2022-08-28T14:00:44.461Z,36.71
2022-08-28T14:03:31.542Z,37.08
2022-08-28T14:05:59.379Z,35.79
2022-08-28T14:08:27.267Z,35.77
2022-08-28T14:10:55.342Z,36.19
2022-08-28T14:13:27.418Z,36.31
2022-08-28T14:15:55.811Z,36.33
2022-08-28T14:18:25.759Z,36.40
2022-08-28T14:20:53.845Z,35.98
2022-08-28T14:23:22.986Z,36.36
2022-08-28T14:25:50.963Z,36.71
2022-08-28T14:28:19.173Z,37.06
2022-08-28T14:30:48.896Z,37.28
2022-08-28T14:33:20.692Z,37.23
2022-08-28T14:35:50.158Z,37.39
2022-08-28T14:38:18.894Z,37.63
2022-08-28T14:40:46.948Z,37.15
2022-08-28T14:43:15.916Z,36.85
2022-08-28T14:45:45.800Z,36.65
2022-08-28T14:48:14.503Z,37.36
2022-08-28T14:50:44.021Z,37.65
2022-08-28T14:53:13.888Z,37.52
2022-08-28T14:55:44.244Z,37.54
2022-08-28T14:58:12.986Z,38.02
2022-08-28T15:00:42.135Z,37.82
2022-08-28T15:03:10.717Z,37.89
2022-08-28T15:05:38.715Z,37.28
2022-08-28T15:08:09.300Z,37.45
2022-08-28T15:10:40.070Z,37.19
2022-08-28T15:13:09.921Z,36.61
2022-08-28T15:15:39.363Z,36.14
2022-08-28T15:18:07.460Z,36.48
2022-08-28T15:20:38.996Z,37.71
2022-08-28T15:23:06.874Z,37.87
2022-08-28T15:25:34.932Z,37.88
2022-08-28T15:28:04.899Z,37.58
2022-08-28T15:30:33.332Z,37.56
2022-08-28T15:33:01.279Z,37.33
2022-08-28T15:35:29.306Z,38.67
2022-08-28T15:37:57.935Z,38.29
2022-08-28T15:40:43.482Z,37.78
2022-08-28T15:43:12.914Z,38.31
2022-08-28T15:45:42.156Z,37.70
2022-08-28T15:48:11.975Z,39.36
2022-08-28T15:50:40.035Z,38.43
2022-08-28T15:53:09.360Z,36.89
2022-08-28T15:55:38.343Z,37.94
2022-08-28T15:58:08.852Z,37.44
2022-08-28T16:00:44.049Z,38.02
2022-08-28T16:03:12.122Z,38.10
2022-08-28T16:05:40.648Z,37.61
2022-08-28T16:08:10.633Z,37.56
2022-08-28T16:10:39.218Z,38.05
2022-08-28T16:13:07.265Z,37.85
2022-08-28T16:15:35.572Z,37.40
2022-08-28T16:18:08.785Z,38.01
2022-08-28T16:20:37.254Z,37.27
2022-08-28T16:23:05.118Z,38.06
2022-08-28T16:25:32.944Z,37.77
2022-08-28T16:28:00.773Z,37.80
2022-08-28T16:30:28.683Z,38.31
2022-08-28T16:32:56.542Z,38.60
2022-08-28T16:35:26.583Z,38.44
2022-08-28T16:37:54.956Z,38.16
2022-08-28T16:40:23.405Z,38.33
2022-08-28T16:42:52.242Z,38.55
2022-08-28T16:45:20.870Z,40.55
2022-08-28T16:47:49.212Z,43.63
2022-08-28T16:50:18.266Z,43.51
2022-08-28T16:52:47.789Z,43.26
2022-08-28T16:55:16.088Z,43.40
2022-08-28T16:57:44.090Z,43.77
2022-08-28T17:00:14.029Z,44.19
2022-08-28T17:02:42.815Z,43.89
2022-08-28T17:05:11.484Z,43.27
2022-08-28T17:07:39.794Z,42.27
2022-08-28T17:10:12.074Z,43.00
2022-08-28T17:12:39.984Z,43.55
2022-08-28T17:15:09.473Z,43.06
2022-08-28T17:17:39.752Z,42.87
2022-08-28T17:20:29.140Z,41.64
2022-08-28T17:22:56.127Z,42.06
2022-08-28T17:25:26.284Z,42.58
2022-08-28T17:27:54.101Z,41.85
2022-08-28T17:30:22.481Z,42.56
2022-08-28T17:32:51.952Z,42.15
2022-08-28T17:35:20.268Z,42.37
2022-08-28T17:37:50.661Z,41.47
2022-08-28T17:40:19.299Z,41.89
2022-08-28T17:42:52.787Z,41.88
2022-08-28T17:45:21.429Z,41.34
2022-08-28T17:47:49.580Z,41.53
2022-08-28T17:50:19.156Z,42.76
2022-08-28T17:52:47.113Z,41.92
2022-08-28T17:55:16.086Z,42.25
2022-08-28T17:57:46.534Z,42.26
2022-08-28T18:00:18.221Z,41.62
2022-08-28T18:02:47.118Z,42.86
2022-08-28T18:05:15.747Z,42.53
2022-08-28T18:07:43.666Z,41.87
2022-08-28T18:10:12.103Z,42.07
2022-08-28T18:12:42.486Z,42.71
2022-08-28T18:15:13.716Z,42.88
2022-08-28T18:17:50.386Z,42.04
2022-08-28T18:20:19.620Z,41.75
2022-08-28T18:22:47.901Z,41.31
2022-08-28T18:25:30.800Z,41.59
2022-08-28T18:28:04.831Z,41.56
2022-08-28T18:30:33.209Z,41.76
2022-08-28T18:33:03.405Z,41.86
2022-08-28T18:35:32.331Z,41.92
2022-08-28T18:38:01.399Z,42.30
2022-08-28T18:40:30.391Z,41.95
2022-08-28T18:42:58.758Z,42.20
2022-08-28T18:45:27.507Z,41.92
2022-08-28T18:47:55.748Z,42.52
2022-08-28T18:50:26.271Z,42.44
2022-08-28T18:52:54.982Z,42.15
2022-08-28T18:55:25.206Z,42.29
2022-08-28T18:57:53.092Z,42.20
2022-08-28T19:00:23.072Z,42.58
2022-08-28T19:02:51.369Z,42.87
2022-08-28T19:05:20.063Z,42.66
2022-08-28T19:07:50.340Z,43.19
2022-08-28T19:10:32.946Z,43.21
2022-08-28T19:13:02.243Z,43.05
2022-08-28T19:15:31.182Z,43.43
2022-08-28T19:18:00.390Z,43.33
2022-08-28T19:20:29.385Z,43.22
2022-08-28T19:22:59.266Z,43.05
2022-08-28T19:25:32.722Z,43.29
2022-08-28T19:28:02.128Z,43.13
2022-08-28T19:30:33.026Z,43.37
2022-08-28T19:33:02.341Z,43.46
2022-08-28T19:35:30.479Z,43.52
2022-08-28T19:37:59.634Z,43.36
2022-08-28T19:40:31.519Z,43.18
2022-08-28T19:43:00.617Z,43.29
2022-08-28T19:45:31.232Z,43.70
2022-08-28T19:47:59.291Z,44.09
2022-08-28T19:50:27.412Z,43.85
2022-08-28T19:52:55.334Z,43.92
2022-08-28T19:55:27.603Z,44.10
2022-08-28T19:57:55.943Z,43.55
2022-08-28T20:00:28.515Z,43.91
2022-08-28T20:02:57.371Z,43.34
2022-08-28T20:05:26.232Z,43.65
2022-08-28T20:07:54.340Z,43.41
2022-08-28T20:10:22.220Z,43.82
2022-08-28T20:12:51.374Z,43.85
2022-08-28T20:15:20.451Z,44.04
2022-08-28T20:17:49.912Z,44.06
2022-08-28T20:20:19.748Z,44.25
2022-08-28T20:22:47.698Z,44.19
2022-08-28T20:25:18.083Z,44.27
2022-08-28T20:27:45.901Z,44.31
2022-08-28T20:30:15.282Z,44.10
2022-08-28T20:32:43.251Z,44.43
2022-08-28T20:35:12.938Z,44.38
2022-08-28T20:37:45.598Z,44.52
2022-08-28T20:40:14.621Z,44.49
2022-08-28T20:42:42.569Z,44.72
2022-08-28T20:45:11.376Z,44.26
2022-08-28T20:47:40.679Z,44.49
2022-08-28T20:50:09.135Z,44.50
2022-08-28T20:52:37.022Z,44.67
2022-08-28T20:55:05.413Z,44.35
2022-08-28T20:57:33.246Z,44.65
2022-08-28T21:00:05.281Z,44.96
2022-08-28T21:02:33.971Z,44.92
2022-08-28T21:05:03.441Z,44.94
2022-08-28T21:07:33.379Z,44.71
2022-08-28T21:10:05.721Z,45.04
2022-08-28T21:12:36.204Z,44.76
2022-08-28T21:15:04.977Z,45.16
2022-08-28T21:17:32.734Z,44.89
2022-08-28T21:20:02.940Z,45.18
2022-08-28T21:22:35.833Z,45.31
2022-08-28T21:25:05.312Z,45.45
2022-08-28T21:27:33.113Z,45.58
2022-08-28T21:30:01.671Z,45.63
2022-08-28T21:32:30.916Z,45.74
2022-08-28T21:35:00.605Z,45.96
2022-08-28T21:37:28.974Z,46.07
2022-08-28T21:39:59.149Z,46.55
2022-08-28T21:42:27.389Z,46.41
2022-08-28T21:44:55.454Z,46.71
2022-08-28T21:47:24.670Z,47.14
2022-08-28T21:49:54.143Z,46.64
2022-08-28T21:52:23.759Z,47.55
2022-08-28T21:54:56.690Z,47.35
2022-08-28T21:57:25.869Z,47.50
2022-08-28T21:59:53.882Z,47.44
2022-08-28T22:02:22.030Z,47.81
2022-08-28T22:04:50.036Z,48.21
2022-08-28T22:07:19.403Z,48.05
2022-08-28T22:09:47.766Z,48.27
2022-08-28T22:12:16.371Z,48.26
2022-08-28T22:14:45.964Z,48.35
2022-08-28T22:17:15.024Z,48.36
2022-08-28T22:19:43.019Z,48.62
2022-08-28T22:22:34.147Z,48.89
2022-08-28T22:25:01.961Z,49.17
2022-08-28T22:27:31.833Z,49.21
2022-08-28T22:30:01.099Z,49.16
2022-08-28T22:32:29.110Z,49.38
2022-08-28T22:34:56.910Z,48.65
2022-08-28T22:37:25.740Z,49.28
2022-08-28T22:39:53.743Z,49.29
2022-08-28T22:42:21.588Z,49.80
2022-08-28T22:44:49.329Z,49.81
2022-08-28T22:47:19.002Z,49.59
2022-08-28T22:49:46.960Z,50.04
2022-08-28T22:52:15.320Z,49.90
2022-08-28T22:54:43.617Z,50.13
2022-08-28T22:57:11.668Z,50.58
2022-08-28T22:59:39.603Z,50.83
2022-08-28T23:02:07.730Z,50.70
2022-08-28T23:04:37.175Z,51.23
2022-08-28T23:07:05.436Z,51.09
2022-08-28T23:09:36.101Z,51.39
2022-08-28T23:12:04.664Z,51.59
2022-08-28T23:14:32.610Z,51.58
2022-08-28T23:17:01.069Z,51.27
2022-08-28T23:19:29.008Z,51.68
2022-08-28T23:21:59.804Z,51.91
2022-08-28T23:24:27.775Z,51.67
2022-08-28T23:26:55.567Z,52.66
2022-08-28T23:29:23.299Z,52.05
2022-08-28T23:31:51.088Z,51.60
2022-08-28T23:34:18.860Z,52.89
2022-08-28T23:36:46.716Z,52.76
2022-08-28T23:39:16.003Z,52.42
2022-08-28T23:41:43.873Z,52.87
2022-08-28T23:44:11.734Z,52.50
2022-08-28T23:46:41.713Z,52.93
2022-08-28T23:49:11.009Z,52.95
2022-08-28T23:51:38.829Z,52.62
2022-08-28T23:54:07.055Z,52.76
2022-08-28T23:56:36.738Z,52.84
2022-08-28T23:59:05.169Z,53.84
